createdAt,value
2022-10-17T00:02:08.627Z,62.60
2022-10-17T00:04:36.497Z,64.10
2022-10-17T00:07:04.571Z,65.20
2022-10-17T00:09:32.463Z,66.20
2022-10-17T00:12:00.365Z,67.50
2022-10-17T00:14:28.253Z,67.40
2022-10-17T00:16:56.104Z,67.70
2022-10-17T00:19:23.894Z,63.10
2022-10-17T00:21:51.894Z,59.50
2022-10-17T00:24:19.731Z,57.60
2022-10-17T00:26:47.650Z,55.90
2022-10-17T00:29:15.509Z,54.80
2022-10-17T00:31:43.454Z,59.30
2022-10-17T00:34:11.327Z,61.50
2022-10-17T00:36:39.007Z,63.50
2022-10-17T00:39:06.937Z,64.90
2022-10-17T00:41:35.171Z,66.00
2022-10-17T00:44:08.015Z,67.00
2022-10-17T00:46:37.307Z,67.80
2022-10-17T00:49:07.420Z,68.40
2022-10-17T00:51:39.311Z,68.50
2022-10-17T00:54:08.037Z,63.30
2022-10-17T00:56:36.037Z,60.00
2022-10-17T01:01:34.771Z,56.20
2022-10-17T01:04:02.823Z,55.10
2022-10-17T01:06:30.837Z,58.00
2022-10-17T01:08:59.096Z,61.50
2022-10-17T01:11:36.541Z,63.50
2022-10-17T01:14:04.494Z,65.00
2022-10-17T01:16:32.861Z,66.10
2022-10-17T01:19:00.713Z,67.20
2022-10-17T01:21:34.322Z,67.90
2022-10-17T01:24:08.095Z,68.40
2022-10-17T01:26:49.046Z,68.50
2022-10-17T01:29:32.591Z,65.40
2022-10-17T01:32:19.449Z,60.00
2022-10-17T01:35:19.486Z,58.00
2022-10-17T01:37:50.506Z,56.20
2022-10-17T01:40:23.810Z,55.20
2022-10-17T01:42:54.643Z,59.70
2022-10-17T01:45:30.059Z,62.50
2022-10-17T01:47:59.724Z,64.10
2022-10-17T01:50:39.434Z,65.40
2022-10-17T01:53:14.220Z,66.40
2022-10-17T01:55:44.814Z,67.40
2022-10-17T01:58:23.707Z,68.00
2022-10-17T02:00:52.786Z,68.40
2022-10-17T02:03:21.810Z,68.30
2022-10-17T02:05:49.730Z,62.00
2022-10-17T02:08:40.406Z,59.10
2022-10-17T02:11:12.363Z,57.60
2022-10-17T02:13:40.275Z,55.70
2022-10-17T02:16:12.832Z,56.60
2022-10-17T02:18:46.985Z,61.00
2022-10-17T02:21:29.095Z,63.30
2022-10-17T02:24:03.661Z,64.70
2022-10-17T02:26:54.169Z,65.90
2022-10-17T02:29:25.522Z,66.90
2022-10-17T02:32:13.544Z,67.80
2022-10-17T02:34:49.888Z,68.20
2022-10-17T02:37:20.624Z,68.50
2022-10-17T02:39:51.366Z,66.40
2022-10-17T02:42:20.764Z,60.80
2022-10-17T02:44:48.680Z,58.40
2022-10-17T02:47:25.705Z,57.00
2022-10-17T02:49:55.157Z,55.60
2022-10-17T02:52:44.279Z,57.10
2022-10-17T02:55:12.239Z,61.50
2022-10-17T02:58:01.343Z,63.50
2022-10-17T03:00:29.964Z,65.00
2022-10-17T03:02:57.831Z,66.30
2022-10-17T03:05:28.116Z,67.30
2022-10-17T03:07:56.378Z,68.00
2022-10-17T03:10:25.605Z,68.50
2022-10-17T03:12:53.629Z,68.50
2022-10-17T03:15:21.668Z,66.20
2022-10-17T03:17:49.616Z,61.40
2022-10-17T03:20:19.262Z,58.60
2022-10-17T03:22:47.155Z,57.00
2022-10-17T03:25:15.300Z,59.30
2022-10-17T03:27:43.522Z,63.10
2022-10-17T03:30:11.430Z,64.80
2022-10-17T03:32:39.751Z,66.20
2022-10-17T03:35:10.198Z,67.30
2022-10-17T03:37:42.057Z,68.10
2022-10-17T03:40:10.183Z,68.90
2022-10-17T03:42:38.022Z,69.30
2022-10-17T03:45:06.856Z,69.30
2022-10-17T03:47:34.998Z,67.60
2022-10-17T03:50:02.826Z,61.70
2022-10-17T03:52:33.336Z,59.80
2022-10-17T03:55:02.297Z,57.60
2022-10-17T03:57:31.755Z,57.50
2022-10-17T03:59:59.891Z,61.90
2022-10-17T04:02:27.923Z,64.20
2022-10-17T04:04:55.654Z,65.60
2022-10-17T04:07:23.575Z,66.90
2022-10-17T04:09:51.465Z,67.90
2022-10-17T04:12:21.109Z,68.80
2022-10-17T04:14:49.208Z,69.50
2022-10-17T04:17:17.625Z,69.70
2022-10-17T04:19:46.030Z,69.70
2022-10-17T04:22:16.822Z,68.10
2022-10-17T04:24:44.656Z,62.50
2022-10-17T04:27:30.717Z,59.70
2022-10-17T04:29:58.980Z,57.80
2022-10-17T04:32:27.247Z,56.50
2022-10-17T04:35:18.133Z,60.40
2022-10-17T04:37:51.092Z,63.70
2022-10-17T04:40:21.236Z,65.30
2022-10-17T04:42:51.533Z,66.60
2022-10-17T04:45:21.966Z,68.10
2022-10-17T04:47:54.317Z,68.90
2022-10-17T04:50:22.430Z,69.20
2022-10-17T04:53:09.958Z,69.60
2022-10-17T04:55:38.582Z,69.70
2022-10-17T04:58:06.389Z,68.70
2022-10-17T05:00:34.436Z,62.20
2022-10-17T05:03:10.625Z,59.80
2022-10-17T05:05:39.182Z,58.80
2022-10-17T05:08:07.753Z,62.80
2022-10-17T05:10:43.258Z,65.70
2022-10-17T05:13:11.212Z,67.20
2022-10-17T05:15:39.295Z,68.40
2022-10-17T05:18:07.314Z,69.20
2022-10-17T05:20:35.884Z,70.20
2022-10-17T05:23:03.784Z,70.70
2022-10-17T05:25:36.543Z,70.70
2022-10-17T05:28:04.359Z,70.60
2022-10-17T05:30:35.205Z,65.70
2022-10-17T05:33:08.466Z,62.10
2022-10-17T05:35:36.760Z,59.80
2022-10-17T05:38:04.489Z,62.80
2022-10-17T05:40:35.152Z,66.00
2022-10-17T05:43:03.557Z,67.80
2022-10-17T05:45:31.637Z,68.80
2022-10-17T05:48:00.721Z,69.90
2022-10-17T05:50:29.174Z,70.60
2022-10-17T05:53:12.295Z,71.40
2022-10-17T05:55:46.856Z,71.60
2022-10-17T05:58:22.106Z,71.60
2022-10-17T06:01:06.217Z,67.60
2022-10-17T06:03:36.119Z,62.60
2022-10-17T06:06:07.333Z,60.30
2022-10-17T06:08:37.235Z,58.70
2022-10-17T06:11:09.276Z,63.20
2022-10-17T06:13:40.226Z,66.10
2022-10-17T06:16:14.428Z,67.50
2022-10-17T06:18:42.469Z,68.80
2022-10-17T06:21:11.158Z,69.80
2022-10-17T06:23:44.427Z,71.20
2022-10-17T06:26:19.607Z,71.30
2022-10-17T06:28:47.701Z,71.70
2022-10-17T06:31:16.677Z,71.90
2022-10-17T06:33:44.619Z,71.80
2022-10-17T06:36:14.464Z,67.00
2022-10-17T06:38:43.550Z,62.90
2022-10-17T06:41:21.759Z,61.00
2022-10-17T06:43:53.401Z,59.50
2022-10-17T06:46:39.935Z,63.40
2022-10-17T06:49:10.357Z,66.50
2022-10-17T06:51:49.520Z,68.00
2022-10-17T06:54:20.772Z,69.10
2022-10-17T06:56:55.667Z,70.30
2022-10-17T06:59:51.786Z,71.10
2022-10-17T07:02:24.348Z,72.10
2022-10-17T07:04:53.703Z,72.60
2022-10-17T07:07:21.805Z,72.40
2022-10-17T07:09:49.749Z,72.40
2022-10-17T07:12:18.434Z,67.60
2022-10-17T07:14:46.262Z,63.80
2022-10-17T07:17:14.698Z,61.40
2022-10-17T07:19:43.250Z,59.40
2022-10-17T07:22:11.685Z,61.40
2022-10-17T07:24:42.409Z,65.40
2022-10-17T07:27:21.717Z,67.30
2022-10-17T07:29:50.226Z,68.70
2022-10-17T07:32:32.757Z,69.80
2022-10-17T07:35:00.699Z,71.00
2022-10-17T07:37:29.794Z,71.70
2022-10-17T07:39:57.874Z,72.50
2022-10-17T07:42:26.608Z,72.90
2022-10-17T07:44:55.056Z,73.10
2022-10-17T07:47:26.606Z,73.00
2022-10-17T07:49:54.936Z,68.90
2022-10-17T07:52:23.046Z,64.50
2022-10-17T07:54:51.442Z,62.20
2022-10-17T07:57:19.260Z,63.10
2022-10-17T07:59:47.240Z,67.60
2022-10-17T08:02:21.278Z,69.40
2022-10-17T08:04:49.120Z,70.60
2022-10-17T08:07:23.229Z,71.60
2022-10-17T08:09:55.046Z,72.60
2022-10-17T08:12:22.807Z,73.40
2022-10-17T08:14:50.624Z,74.00
2022-10-17T08:17:18.485Z,74.50
2022-10-17T08:19:46.445Z,74.50
2022-10-17T08:22:14.155Z,72.30
2022-10-17T08:24:42.086Z,66.50
2022-10-17T08:27:09.885Z,63.70
2022-10-17T08:29:38.494Z,61.90
2022-10-17T08:32:09.064Z,62.00
2022-10-17T08:34:37.770Z,66.00
2022-10-17T08:37:05.549Z,68.40
2022-10-17T08:39:33.435Z,69.90
2022-10-17T08:42:13.286Z,71.00
2022-10-17T08:44:59.531Z,72.40
2022-10-17T08:47:36.002Z,73.50
2022-10-17T08:50:06.060Z,74.30
2022-10-17T08:52:42.401Z,75.00
2022-10-17T08:57:50.940Z,75.30
2022-10-17T09:00:20.789Z,68.70
2022-10-17T09:02:58.741Z,65.20
2022-10-17T09:05:37.075Z,63.20
2022-10-17T09:08:12.928Z,61.60
2022-10-17T09:10:41.108Z,60.30
2022-10-17T09:13:09.061Z,65.40
2022-10-17T09:15:46.359Z,67.80
2022-10-17T09:18:37.663Z,69.40
2022-10-17T09:21:27.700Z,70.60
2022-10-17T09:24:09.206Z,72.20
2022-10-17T09:26:40.109Z,73.40
2022-10-17T09:29:15.521Z,74.30
2022-10-17T09:31:46.368Z,74.70
2022-10-17T09:34:15.548Z,75.00
2022-10-17T09:36:43.403Z,75.20
2022-10-17T09:39:19.521Z,69.30
2022-10-17T09:41:50.374Z,65.70
2022-10-17T09:44:25.694Z,63.50
2022-10-17T09:47:06.847Z,61.80
2022-10-17T09:49:36.475Z,60.10
2022-10-17T09:52:06.087Z,58.50
2022-10-17T09:54:42.353Z,57.80
2022-10-17T09:57:11.395Z,62.80
2022-10-17T09:59:41.276Z,65.50
2022-10-17T10:02:20.787Z,67.10
2022-10-17T10:05:03.720Z,68.50
2022-10-17T10:07:39.632Z,69.70
2022-10-17T10:10:23.405Z,70.90
2022-10-17T10:13:07.207Z,71.70
2022-10-17T10:15:39.236Z,72.60
2022-10-17T10:18:28.531Z,73.20
2022-10-17T10:21:10.194Z,73.50
2022-10-17T10:23:39.635Z,69.60
2022-10-17T10:26:20.951Z,65.00
2022-10-17T10:29:12.555Z,62.90
2022-10-17T10:31:40.723Z,60.80
2022-10-17T10:34:23.280Z,59.50
2022-10-17T10:36:51.323Z,62.70
2022-10-17T10:39:45.459Z,66.40
2022-10-17T10:42:24.980Z,68.20
2022-10-17T10:44:53.949Z,69.60
2022-10-17T10:47:23.721Z,70.70
2022-10-17T10:49:52.706Z,72.00
2022-10-17T10:52:32.549Z,72.80
2022-10-17T10:55:05.260Z,73.40
2022-10-17T10:57:35.485Z,73.90
2022-10-17T11:00:13.631Z,73.20
2022-10-17T11:03:12.585Z,67.10
2022-10-17T11:05:45.615Z,63.50
2022-10-17T11:08:24.265Z,62.10
2022-10-17T11:11:18.545Z,60.40
2022-10-17T11:13:54.056Z,59.10
2022-10-17T11:16:22.189Z,57.80
2022-10-17T11:18:55.822Z,56.60
2022-10-17T11:21:43.889Z,55.50
2022-10-17T11:24:12.095Z,57.40
2022-10-17T11:28:38.687Z,61.40
2022-10-17T11:31:18.122Z,63.50
2022-10-17T11:33:55.576Z,66.00
2022-10-17T11:36:30.711Z,67.50
2022-10-17T11:39:19.134Z,68.80
2022-10-17T11:41:49.278Z,70.10
2022-10-17T11:44:20.527Z,70.90
2022-10-17T11:46:56.062Z,71.40
2022-10-17T11:49:35.522Z,72.40
2022-10-17T11:52:54.895Z,69.40
2022-10-17T11:55:29.022Z,64.20
2022-10-17T11:58:26.718Z,62.00
2022-10-17T12:01:04.529Z,59.70
2022-10-17T12:03:51.596Z,58.10
2022-10-17T12:06:42.633Z,56.80
2022-10-17T12:09:21.760Z,55.40
2022-10-17T12:11:59.696Z,58.00
2022-10-17T12:14:47.278Z,62.50
2022-10-17T12:17:28.809Z,64.80
2022-10-17T12:20:34.138Z,66.40
2022-10-17T12:23:14.439Z,68.30
2022-10-17T12:25:51.393Z,69.60
2022-10-17T12:28:29.508Z,70.40
2022-10-17T12:31:23.496Z,71.40
2022-10-17T12:33:56.429Z,71.80
2022-10-17T12:36:27.913Z,68.30
2022-10-17T12:39:05.218Z,63.70
2022-10-17T12:41:40.117Z,61.60
2022-10-17T12:44:16.779Z,60.30
2022-10-17T12:47:07.605Z,58.90
2022-10-17T12:49:47.032Z,57.60
2022-10-17T12:52:28.033Z,56.00
2022-10-17T12:55:14.060Z,54.70
2022-10-17T12:57:57.438Z,53.80
2022-10-17T13:00:49.816Z,53.30
2022-10-17T13:03:36.336Z,55.80
2022-10-17T13:06:07.717Z,60.50
2022-10-17T13:08:45.750Z,62.90
2022-10-17T13:11:14.480Z,64.70
2022-10-17T13:13:47.191Z,66.40
2022-10-17T13:16:35.808Z,67.60
2022-10-17T13:19:15.871Z,68.90
2022-10-17T13:22:06.873Z,69.90
2022-10-17T13:24:40.602Z,70.80
2022-10-17T13:27:30.563Z,70.90
2022-10-17T13:30:01.567Z,65.10
2022-10-17T13:32:40.799Z,61.90
2022-10-17T13:35:10.780Z,59.90
2022-10-17T13:37:51.592Z,58.70
2022-10-17T13:43:22.523Z,56.50
2022-10-17T13:46:13.735Z,55.00
2022-10-17T13:48:48.267Z,54.10
2022-10-17T13:51:16.445Z,53.10
2022-10-17T13:53:45.027Z,52.30
2022-10-17T13:56:29.778Z,51.80
2022-10-17T13:59:09.943Z,51.20
2022-10-17T14:01:39.087Z,50.90
2022-10-17T14:04:09.630Z,50.60
2022-10-17T14:06:47.977Z,54.40
2022-10-17T14:09:23.189Z,58.50
2022-10-17T14:12:04.569Z,60.70
2022-10-17T14:14:51.723Z,62.60
2022-10-17T14:17:29.608Z,64.60
2022-10-17T14:23:17.378Z,66.90
2022-10-17T14:25:42.621Z,67.70
2022-10-17T14:28:16.665Z,68.40
2022-10-17T14:30:57.062Z,66.00
2022-10-17T14:33:32.514Z,60.90
2022-10-17T14:36:02.608Z,58.80
2022-10-17T14:38:31.696Z,56.90
2022-10-17T14:41:29.666Z,55.80
2022-10-17T14:44:02.310Z,54.90
2022-10-17T14:46:31.695Z,53.60
2022-10-17T14:49:24.663Z,52.90
2022-10-17T14:52:18.988Z,51.70
2022-10-17T14:54:51.197Z,51.00
2022-10-17T14:57:42.387Z,50.70
2022-10-17T15:00:16.463Z,49.80
2022-10-17T15:02:46.573Z,49.20
2022-10-17T15:05:16.548Z,49.00
2022-10-17T15:07:44.967Z,51.20
2022-10-17T15:10:37.802Z,54.90
2022-10-17T15:15:54.645Z,61.10
2022-10-17T15:18:23.015Z,62.90
2022-10-17T15:20:59.596Z,64.10
2022-10-17T15:23:35.001Z,63.30
2022-10-17T15:26:03.209Z,58.20
2022-10-17T15:28:31.531Z,56.00
2022-10-17T15:31:00.334Z,61.00
2022-10-17T15:33:28.598Z,63.90
2022-10-17T15:38:30.351Z,62.00
2022-10-17T15:40:58.795Z,58.40
2022-10-17T15:43:27.244Z,56.70
2022-10-17T15:45:55.908Z,55.10
2022-10-17T15:48:31.723Z,54.00
2022-10-17T15:51:01.157Z,53.00
2022-10-17T15:53:29.493Z,52.40
2022-10-17T15:55:58.855Z,51.70
2022-10-17T15:58:31.171Z,50.90
2022-10-17T16:00:59.798Z,50.20
2022-10-17T16:03:28.067Z,50.50
2022-10-17T16:05:56.449Z,52.10
2022-10-17T16:08:24.962Z,53.70
2022-10-17T16:10:55.056Z,50.80
2022-10-17T16:13:25.394Z,50.40
2022-10-17T16:15:54.329Z,53.60
2022-10-17T16:18:22.571Z,53.50
2022-10-17T16:20:50.731Z,51.30
2022-10-17T16:23:19.014Z,50.20
2022-10-17T16:25:47.337Z,49.00
2022-10-17T16:28:15.671Z,49.00
2022-10-17T16:30:44.491Z,48.40
2022-10-17T16:33:12.914Z,47.80
2022-10-17T16:35:41.099Z,47.60
2022-10-17T16:38:09.474Z,47.60
2022-10-17T16:40:39.333Z,49.80
2022-10-17T16:43:08.237Z,47.80
2022-10-17T16:45:37.252Z,47.00
2022-10-17T16:48:05.857Z,48.50
2022-10-17T16:50:33.959Z,50.80
2022-10-17T16:53:02.902Z,48.40
2022-10-17T16:55:31.242Z,47.90
2022-10-17T16:57:59.439Z,47.00
2022-10-17T17:00:27.630Z,46.50
2022-10-17T17:02:55.964Z,46.40
2022-10-17T17:05:24.049Z,45.90
2022-10-17T17:07:52.457Z,45.80
2022-10-17T17:10:20.680Z,45.50
2022-10-17T17:12:48.772Z,46.10
2022-10-17T17:15:17.052Z,46.00
2022-10-17T17:17:50.555Z,44.90
2022-10-17T17:20:21.978Z,46.90
2022-10-17T17:22:50.258Z,49.30
2022-10-17T17:25:18.581Z,46.50
2022-10-17T17:27:46.767Z,45.60
2022-10-17T17:30:15.228Z,45.40
2022-10-17T17:32:43.524Z,44.60
2022-10-17T17:35:11.749Z,44.30
2022-10-17T17:37:40.005Z,43.50
2022-10-17T17:40:08.718Z,44.00
2022-10-17T17:42:36.873Z,45.60
2022-10-17T17:45:05.575Z,44.20
2022-10-17T17:47:33.720Z,44.00
2022-10-17T17:50:02.099Z,47.80
2022-10-17T17:52:30.966Z,48.70
2022-10-17T17:54:59.301Z,46.90
2022-10-17T17:57:29.327Z,44.90
2022-10-17T17:59:57.649Z,44.10
2022-10-17T18:02:25.692Z,43.90
2022-10-17T18:04:54.005Z,43.60
2022-10-17T18:07:22.053Z,43.00
2022-10-17T18:09:50.389Z,44.00
2022-10-17T18:12:19.077Z,47.50
2022-10-17T18:14:48.345Z,51.30
2022-10-17T18:17:16.692Z,51.30
2022-10-17T18:19:44.914Z,47.10
2022-10-17T18:22:13.012Z,46.30
2022-10-17T18:24:41.706Z,50.30
2022-10-17T18:27:09.887Z,53.90
2022-10-17T18:29:38.283Z,56.00
2022-10-17T18:32:06.608Z,53.30
2022-10-17T18:34:34.792Z,50.10
2022-10-17T18:37:02.989Z,48.60
2022-10-17T18:39:31.429Z,48.10
2022-10-17T18:41:59.635Z,47.20
2022-10-17T18:44:27.938Z,46.80
2022-10-17T18:46:58.512Z,46.30
2022-10-17T18:49:29.775Z,45.40
2022-10-17T18:51:57.819Z,45.20
2022-10-17T18:54:26.079Z,48.60
2022-10-17T18:56:55.353Z,52.60
2022-10-17T18:59:23.663Z,54.50
2022-10-17T19:01:51.945Z,56.40
2022-10-17T19:04:20.198Z,57.80
2022-10-17T19:06:48.384Z,56.50
2022-10-17T19:09:16.708Z,51.80
2022-10-17T19:11:44.933Z,50.70
2022-10-17T19:14:14.019Z,55.10
2022-10-17T19:16:50.116Z,58.10
2022-10-17T19:19:24.132Z,59.90
2022-10-17T19:21:52.883Z,61.10
2022-10-17T19:24:22.109Z,55.20
2022-10-17T19:26:51.608Z,53.20
2022-10-17T19:29:20.495Z,51.40
2022-10-17T19:31:49.343Z,50.50
2022-10-17T19:34:17.835Z,49.20
2022-10-17T19:36:46.764Z,48.50
2022-10-17T19:39:21.114Z,47.60
2022-10-17T19:41:50.150Z,46.90
2022-10-17T19:44:18.538Z,46.50
2022-10-17T19:46:47.220Z,45.60
2022-10-17T19:49:15.523Z,45.10
2022-10-17T19:51:44.104Z,47.80
2022-10-17T19:54:12.467Z,51.00
2022-10-17T19:56:40.917Z,53.80
2022-10-17T19:59:11.155Z,55.90
2022-10-17T20:01:39.905Z,57.30
2022-10-17T20:04:08.580Z,58.40
2022-10-17T20:06:36.608Z,58.30
2022-10-17T20:09:06.882Z,53.30
2022-10-17T20:11:36.416Z,51.40
2022-10-17T20:14:04.895Z,54.30
2022-10-17T20:16:37.700Z,57.90
2022-10-17T20:19:10.934Z,60.20
2022-10-17T20:21:39.903Z,61.10
2022-10-17T20:24:11.530Z,61.40
2022-10-17T20:26:40.590Z,56.30
2022-10-17T20:29:18.141Z,54.00
2022-10-17T20:31:47.830Z,52.10
2022-10-17T20:34:17.468Z,50.70
2022-10-17T20:36:46.182Z,49.70
2022-10-17T20:39:14.806Z,48.60
2022-10-17T20:41:42.992Z,48.00
2022-10-17T20:44:12.306Z,46.90
2022-10-17T20:46:52.700Z,46.40
2022-10-17T20:49:26.120Z,45.80
2022-10-17T20:51:54.382Z,45.10
2022-10-17T20:54:22.708Z,45.90
2022-10-17T20:56:51.152Z,49.70
2022-10-17T20:59:19.848Z,52.90
2022-10-17T21:01:48.256Z,55.10
2022-10-17T21:04:44.169Z,56.60
2022-10-17T21:07:04.797Z,57.50
2022-10-17T21:09:33.293Z,53.80
2022-10-17T21:14:34.531Z,51.20
2022-10-17T21:17:05.237Z,55.90
2022-10-17T21:19:33.995Z,58.40
2022-10-17T21:22:02.336Z,59.90
2022-10-17T21:24:31.062Z,60.30
2022-10-17T21:26:59.331Z,60.40
2022-10-17T21:29:27.766Z,54.60
2022-10-17T21:31:56.144Z,52.80
2022-10-17T21:34:24.686Z,51.30
2022-10-17T21:36:53.131Z,49.90
2022-10-17T21:39:21.972Z,49.50
2022-10-17T21:41:50.165Z,48.10
2022-10-17T21:44:20.856Z,47.30
2022-10-17T21:46:49.638Z,46.80
2022-10-17T21:49:18.640Z,47.80
2022-10-17T21:51:47.860Z,52.10
2022-10-17T21:54:17.422Z,55.00
2022-10-17T21:56:45.943Z,57.00
2022-10-17T21:59:14.204Z,58.40
2022-10-17T22:01:44.579Z,59.40
2022-10-17T22:04:18.622Z,60.00
2022-10-17T22:06:48.661Z,54.80
2022-10-17T22:09:27.304Z,52.70
2022-10-17T22:11:56.680Z,50.90
2022-10-17T22:14:27.770Z,49.70
2022-10-17T22:16:56.211Z,48.50
2022-10-17T22:19:26.150Z,48.00
2022-10-17T22:21:54.971Z,47.20
2022-10-17T22:24:23.981Z,50.40
2022-10-17T22:26:52.683Z,54.00
2022-10-17T22:29:21.421Z,56.60
2022-10-17T22:31:49.724Z,58.00
2022-10-17T22:34:19.165Z,59.50
2022-10-17T22:36:47.569Z,60.20
2022-10-17T22:39:15.816Z,60.70
2022-10-17T22:41:43.999Z,55.20
2022-10-17T22:44:12.166Z,52.80
2022-10-17T22:46:40.472Z,51.60
2022-10-17T22:49:08.716Z,50.60
2022-10-17T22:51:37.069Z,49.20
2022-10-17T22:54:05.324Z,48.20
2022-10-17T22:56:33.698Z,47.30
2022-10-17T22:59:01.819Z,46.70
2022-10-17T23:01:32.575Z,47.10
2022-10-17T23:04:00.731Z,50.60
2022-10-17T23:06:28.998Z,53.90
2022-10-17T23:08:57.003Z,56.20
2022-10-17T23:11:25.224Z,57.70
2022-10-17T23:13:53.501Z,58.90
2022-10-17T23:16:21.638Z,59.70
2022-10-17T23:18:49.792Z,60.20
2022-10-17T23:21:17.954Z,57.20
2022-10-17T23:23:46.111Z,53.60
2022-10-17T23:26:15.304Z,51.60
2022-10-17T23:28:44.209Z,50.40
2022-10-17T23:34:37.388Z,48.70
2022-10-17T23:37:05.617Z,51.10
2022-10-17T23:39:33.657Z,54.90
2022-10-17T23:42:01.905Z,56.90
2022-10-17T23:44:30.205Z,58.70
2022-10-17T23:46:58.361Z,60.00
2022-10-17T23:49:26.394Z,61.00
2022-10-17T23:51:55.124Z,61.80
2022-10-17T23:54:23.546Z,62.10
2022-10-17T23:56:51.900Z,56.80
2022-10-17T23:59:20.037Z,54.30
